Time;durP1;ratioP1;P1;durP2;ratioP2;P2;SDS_P1;SDS_P2;PMS_P1;PMS_P2;Temp;Humidity;BMP_temperature;BMP_pressure;BME280_temperature;BME280_humidity;BME280_pressure;Samples;Min_cycle;Max_cycle;Signal;HPM_P1;HPM_P2
2022/04/08 00:01:25;;;;;;;11.05;2.08;;;6.20;99.90;;;;;;5087688;28;20516;-77
2022/04/08 00:03:52;;;;;;;7.80;1.35;;;6.20;99.90;;;;;;5085948;28;20480;-76
2022/04/08 00:06:18;;;;;;;9.20;1.40;;;6.20;99.90;;;;;;5086924;28;20398;-77
2022/04/08 00:08:45;;;;;;;10.43;1.48;;;6.20;99.90;;;;;;5087155;28;20451;-76
2022/04/08 00:11:11;;;;;;;5.80;1.00;;;6.10;99.90;;;;;;5087361;28;20405;-76
2022/04/08 00:13:37;;;;;;;8.50;1.00;;;6.10;99.90;;;;;;5086839;28;20394;-76
2022/04/08 00:16:03;;;;;;;10.43;1.13;;;6.10;99.90;;;;;;5085742;28;20460;-76
2022/04/08 00:18:29;;;;;;;10.27;1.45;;;6.10;99.90;;;;;;5086933;28;20402;-76
2022/04/08 00:20:56;;;;;;;9.48;1.10;;;6.10;99.90;;;;;;5085684;28;20429;-77
2022/04/08 00:23:21;;;;;;;9.50;0.90;;;6.10;99.90;;;;;;5085793;28;20500;-76
2022/04/08 00:25:47;;;;;;;4.97;0.43;;;6.10;99.90;;;;;;5085989;28;20410;-76
2022/04/08 00:28:13;;;;;;;3.75;0.50;;;6.00;99.90;;;;;;5086635;28;20410;-76
2022/04/08 00:30:39;;;;;;;3.20;0.30;;;5.70;99.90;;;;;;5086775;28;20398;-76
2022/04/08 00:33:04;;;;;;;3.40;0.40;;;5.50;99.90;;;;;;5085869;28;20402;-76
2022/04/08 00:35:30;;;;;;;2.92;0.35;;;5.30;99.90;;;;;;5087199;28;20880;-75
2022/04/08 00:37:57;;;;;;;4.67;0.50;;;5.20;99.90;;;;;;5087015;28;20527;-76
2022/04/08 00:40:23;;;;;;;4.82;0.50;;;5.20;99.90;;;;;;5086399;28;20843;-76
2022/04/08 00:42:48;;;;;;;4.72;0.65;;;5.10;99.90;;;;;;5087132;28;20516;-76
2022/04/08 00:45:14;;;;;;;5.68;0.80;;;5.10;99.90;;;;;;5090865;28;20477;-76
2022/04/08 00:47:41;;;;;;;7.80;0.77;;;5.00;99.90;;;;;;5090351;28;20394;-76
2022/04/08 00:50:08;;;;;;;7.57;0.95;;;5.00;99.90;;;;;;5090055;28;20875;-76
2022/04/08 00:52:35;;;;;;;8.27;1.02;;;4.90;99.90;;;;;;5089147;28;20477;-76
2022/04/08 00:55:03;;;;;;;10.82;1.38;;;4.90;99.90;;;;;;5090231;28;20410;-76
2022/04/08 00:57:30;;;;;;;9.70;1.33;;;4.90;99.90;;;;;;5088842;28;20410;-76
2022/04/08 00:59:56;;;;;;;11.87;1.50;;;4.80;99.90;;;;;;5089062;28;20508;-76
2022/04/08 01:02:22;;;;;;;10.87;1.93;;;4.80;99.90;;;;;;5088464;28;20477;-76
2022/04/08 01:04:48;;;;;;;12.57;1.60;;;4.90;99.90;;;;;;5089985;28;20406;-76
2022/04/08 01:07:14;;;;;;;9.43;1.87;;;4.90;99.90;;;;;;5088953;28;20422;-76
2022/04/08 01:09:40;;;;;;;12.80;2.10;;;4.80;99.90;;;;;;5088648;28;20489;-76
2022/04/08 01:12:06;;;;;;;14.02;2.20;;;4.80;99.90;;;;;;5088582;28;20482;-76
2022/04/08 01:14:31;;;;;;;15.32;2.45;;;4.80;99.90;;;;;;5088619;28;20442;-76
2022/04/08 01:16:57;;;;;;;12.43;1.77;;;4.80;99.90;;;;;;5089821;28;20394;-76
2022/04/08 01:19:23;;;;;;;12.50;1.60;;;4.80;99.90;;;;;;5071297;28;20915;-76
2022/04/08 01:21:48;;;;;;;9.87;1.53;;;4.80;99.90;;;;;;5088492;28;20416;-76
2022/04/08 01:24:15;;;;;;;11.18;1.58;;;4.80;99.90;;;;;;5089408;28;20781;-76
2022/04/08 01:26:41;;;;;;;14.77;1.92;;;4.80;99.90;;;;;;5088492;28;20426;-76
2022/04/08 01:29:07;;;;;;;10.77;1.60;;;4.80;99.90;;;;;;5089674;28;20398;-76
2022/04/08 01:31:33;;;;;;;12.70;1.85;;;4.80;99.90;;;;;;5089477;28;20434;-76
2022/04/08 01:33:59;;;;;;;10.50;1.30;;;4.80;99.90;;;;;;5089024;28;20463;-76
2022/04/08 01:36:25;;;;;;;13.77;1.63;;;4.90;99.90;;;;;;5088288;28;20402;-76
2022/04/08 01:38:50;;;;;;;14.15;2.35;;;4.90;99.90;;;;;;5088239;28;20390;-76
2022/04/08 01:41:16;;;;;;;14.32;1.85;;;4.90;99.90;;;;;;5089443;28;20409;-76
2022/04/08 01:43:43;;;;;;;13.30;2.00;;;4.90;99.90;;;;;;5088883;28;20663;-76
2022/04/08 01:46:09;;;;;;;12.00;2.00;;;4.90;99.90;;;;;;5089163;28;20447;-76
2022/04/08 01:48:34;;;;;;;13.17;2.20;;;4.90;99.90;;;;;;5089540;28;20398;-76
2022/04/08 01:51:00;;;;;;;12.35;1.52;;;4.90;99.90;;;;;;5089305;28;20429;-76
2022/04/08 01:53:25;;;;;;;12.10;1.80;;;4.90;99.90;;;;;;5088116;28;20410;-76
2022/04/08 01:55:51;;;;;;;13.50;2.20;;;4.90;99.90;;;;;;5088702;28;20421;-76
2022/04/08 01:58:17;;;;;;;13.27;2.00;;;4.90;99.90;;;;;;5088322;28;20798;-76
2022/04/08 02:00:42;;;;;;;13.07;1.85;;;4.90;99.90;;;;;;5089150;28;20434;-76
2022/04/08 02:03:09;;;;;;;12.13;1.87;;;4.90;99.90;;;;;;5088574;28;20401;-76
2022/04/08 02:05:35;;;;;;;11.75;2.28;;;4.90;99.90;;;;;;5089031;28;20456;-76
2022/04/08 02:08:01;;;;;;;11.88;2.25;;;4.90;99.90;;;;;;5088048;28;21130;-76
2022/04/08 02:10:26;;;;;;;14.35;2.10;;;4.90;99.90;;;;;;5089080;28;20438;-76
2022/04/08 02:12:52;;;;;;;16.17;2.20;;;4.90;99.90;;;;;;5087616;28;21293;-76
2022/04/08 02:15:34;;;;;;;14.23;2.10;;;4.90;99.90;;;;;;5087699;28;20402;-76
2022/04/08 02:18:01;;;;;;;11.25;1.83;;;4.90;99.90;;;;;;5087277;28;20442;-76
2022/04/08 02:20:30;;;;;;;11.02;1.83;;;4.90;99.90;;;;;;5086817;28;20434;-76
2022/04/08 02:22:55;;;;;;;14.98;2.63;;;4.90;99.90;;;;;;5092427;28;20455;-76
2022/04/08 02:25:21;;;;;;;13.50;1.80;;;4.90;99.90;;;;;;5094835;28;20405;-76
2022/04/08 02:27:47;;;;;;;14.70;2.07;;;4.90;99.90;;;;;;5108360;28;20415;-76
2022/04/08 02:30:13;;;;;;;16.43;2.70;;;4.90;99.90;;;;;;5094535;28;20401;-76
2022/04/08 02:32:38;;;;;;;16.65;1.95;;;4.90;99.90;;;;;;5086331;28;20414;-76
2022/04/08 02:35:05;;;;;;;14.33;1.70;;;4.90;99.90;;;;;;5086711;28;20433;-76
2022/04/08 02:37:31;;;;;;;12.55;2.10;;;4.90;99.90;;;;;;5089834;28;20761;-76
2022/04/08 02:39:57;;;;;;;16.20;2.63;;;4.90;99.90;;;;;;5106751;28;20432;-76
2022/04/08 02:42:23;;;;;;;14.45;2.00;;;4.80;99.90;;;;;;5108258;28;20403;-76
2022/04/08 02:44:48;;;;;;;16.52;2.05;;;4.80;99.90;;;;;;5108358;28;20490;-76
2022/04/08 02:47:14;;;;;;;14.50;1.60;;;4.80;99.90;;;;;;5107650;28;20750;-76
2022/04/08 02:49:40;;;;;;;16.15;2.28;;;4.70;99.90;;;;;;5095628;28;20421;-76
2022/04/08 02:52:06;;;;;;;15.30;1.87;;;4.70;99.90;;;;;;5096265;28;21028;-76
2022/04/08 02:54:31;;;;;;;12.87;2.00;;;4.70;99.90;;;;;;5101622;28;20411;-76
2022/04/08 02:56:57;;;;;;;11.97;1.70;;;4.70;99.90;;;;;;5106471;28;20902;-76
2022/04/08 02:59:22;;;;;;;11.20;1.70;;;4.70;99.90;;;;;;5088068;28;20428;-76
2022/04/08 03:01:48;;;;;;;13.50;2.17;;;4.70;99.90;;;;;;5085817;28;20418;-76
2022/04/08 03:04:14;;;;;;;13.63;2.30;;;4.70;99.90;;;;;;5087721;28;20402;-76
2022/04/08 03:06:40;;;;;;;12.50;2.30;;;4.70;99.90;;;;;;5068694;28;20410;-76
2022/04/08 03:09:06;;;;;;;16.27;2.10;;;4.80;99.90;;;;;;5087526;28;20487;-76
2022/04/08 03:11:33;;;;;;;10.20;1.77;;;4.70;99.90;;;;;;5086214;28;20409;-76
2022/04/08 03:14:00;;;;;;;11.93;1.88;;;4.70;99.90;;;;;;5085463;28;20414;-76
2022/04/08 03:16:26;;;;;;;14.30;2.38;;;4.80;99.90;;;;;;5086256;28;20738;-76
2022/04/08 03:18:52;;;;;;;11.27;1.58;;;4.80;99.90;;;;;;5086000;28;20417;-76
2022/04/08 03:21:17;;;;;;;10.52;1.75;;;4.80;99.90;;;;;;5085938;28;20422;-76
2022/04/08 03:23:44;;;;;;;11.98;1.65;;;4.80;99.90;;;;;;5094218;28;20434;-76
2022/04/08 03:26:10;;;;;;;6.20;1.00;;;4.80;99.90;;;;;;5107495;28;20404;-76
2022/04/08 03:28:36;;;;;;;5.77;1.07;;;4.80;99.90;;;;;;5107343;28;20404;-76
2022/04/08 03:31:01;;;;;;;4.77;0.70;;;4.60;99.90;;;;;;5105993;28;20933;-76
2022/04/08 03:33:27;;;;;;;4.67;0.50;;;4.40;99.90;;;;;;5105818;28;20407;-76
2022/04/08 03:35:53;;;;;;;5.35;0.70;;;4.10;99.90;;;;;;5106488;28;20551;-76
2022/04/08 03:38:19;;;;;;;2.07;0.60;;;4.00;99.90;;;;;;5106054;28;20411;-76
2022/04/08 03:40:44;;;;;;;2.83;0.50;;;3.90;99.90;;;;;;5098454;28;20517;-77
2022/04/08 03:43:10;;;;;;;5.93;0.60;;;3.90;99.90;;;;;;5086204;28;20404;-77
2022/04/08 03:45:35;;;;;;;4.37;0.50;;;3.90;99.90;;;;;;5086462;28;20814;-77
2022/04/08 03:48:02;;;;;;;5.40;0.80;;;3.90;99.90;;;;;;5086095;28;20764;-77
2022/04/08 03:50:27;;;;;;;5.05;0.90;;;3.90;99.90;;;;;;5087953;28;20390;-77
2022/04/08 03:52:53;;;;;;;4.05;0.68;;;4.00;99.90;;;;;;5086546;28;20405;-77
2022/04/08 03:55:19;;;;;;;5.40;0.80;;;4.00;99.90;;;;;;5069610;28;20406;-77
2022/04/08 03:57:45;;;;;;;8.77;1.13;;;4.00;99.90;;;;;;5087384;28;20394;-77
2022/04/08 04:00:10;;;;;;;9.50;1.35;;;4.00;99.90;;;;;;5069574;28;20479;-77
2022/04/08 04:02:36;;;;;;;6.82;1.00;;;4.00;99.90;;;;;;5085911;28;20402;-77
2022/04/08 04:05:03;;;;;;;13.43;1.87;;;4.00;99.90;;;;;;5086192;28;20414;-77
2022/04/08 04:07:28;;;;;;;16.05;1.90;;;4.10;99.90;;;;;;5087565;28;20398;-77
2022/04/08 04:09:55;;;;;;;12.02;1.60;;;4.10;99.90;;;;;;5087696;28;20409;-77
2022/04/08 04:12:20;;;;;;;10.00;1.67;;;4.20;99.90;;;;;;5087532;28;21150;-77
2022/04/08 04:14:46;;;;;;;10.30;1.73;;;4.20;99.90;;;;;;5087003;28;20429;-77
2022/04/08 04:17:12;;;;;;;9.83;1.37;;;4.20;99.90;;;;;;5085919;28;20401;-77
2022/04/08 04:19:37;;;;;;;6.72;1.20;;;4.20;99.90;;;;;;5090271;28;20493;-77
2022/04/08 04:22:04;;;;;;;7.80;1.53;;;4.20;99.90;;;;;;5089769;28;20895;-77
2022/04/08 04:24:30;;;;;;;9.63;1.50;;;4.20;99.90;;;;;;5073169;28;20448;-77
2022/04/08 04:26:55;;;;;;;6.80;1.50;;;4.20;99.90;;;;;;5089498;28;20451;-77
2022/04/08 04:29:21;;;;;;;6.22;0.93;;;4.20;99.90;;;;;;5089830;28;20481;-77
2022/04/08 04:31:47;;;;;;;7.30;1.30;;;4.20;99.90;;;;;;5091060;28;20456;-77
2022/04/08 04:34:13;;;;;;;6.82;1.25;;;4.30;99.90;;;;;;5091010;28;20458;-77
2022/04/08 04:36:39;;;;;;;5.93;1.27;;;4.30;99.90;;;;;;5090067;28;20440;-77
2022/04/08 04:39:04;;;;;;;8.05;1.20;;;4.40;99.90;;;;;;5090842;28;20390;-77
2022/04/08 04:41:32;;;;;;;5.93;1.20;;;4.40;99.90;;;;;;5089228;28;20430;-77
2022/04/08 04:43:57;;;;;;;6.30;1.08;;;4.50;99.90;;;;;;5090858;28;20412;-76
2022/04/08 04:46:23;;;;;;;8.53;1.70;;;4.50;99.90;;;;;;5090894;28;20398;-77
2022/04/08 04:48:52;;;;;;;10.40;1.70;;;4.50;99.90;;;;;;5072254;28;20452;-77
2022/04/08 04:51:17;;;;;;;8.23;1.10;;;4.50;99.90;;;;;;5088958;28;21275;-77
2022/04/08 04:53:43;;;;;;;6.60;1.20;;;4.50;99.90;;;;;;5089551;28;20409;-77
2022/04/08 04:56:08;;;;;;;7.43;1.45;;;4.50;99.90;;;;;;5088727;28;20410;-77
2022/04/08 04:58:34;;;;;;;10.53;1.63;;;4.50;99.90;;;;;;5089232;28;20406;-77
2022/04/08 05:01:00;;;;;;;7.82;1.25;;;4.40;99.90;;;;;;5090119;28;20864;-77
2022/04/08 05:03:26;;;;;;;8.73;1.35;;;4.50;99.90;;;;;;5090094;28;20394;-77
2022/04/08 05:05:53;;;;;;;6.85;1.27;;;4.40;99.90;;;;;;5090220;28;20413;-77
2022/04/08 05:08:20;;;;;;;4.93;1.00;;;4.50;99.90;;;;;;5090451;28;20402;-78
2022/04/08 05:10:46;;;;;;;5.10;0.77;;;4.40;99.90;;;;;;5088709;28;20555;-77
2022/04/08 05:13:12;;;;;;;6.27;1.00;;;4.20;99.90;;;;;;5090018;28;20401;-77
2022/04/08 05:15:42;;;;;;;4.57;1.00;;;4.00;99.90;;;;;;5090299;28;20969;-77
2022/04/08 05:18:09;;;;;;;5.22;0.98;;;3.90;99.90;;;;;;5088622;28;20422;-78
2022/04/08 05:20:35;;;;;;;5.03;0.77;;;3.80;99.90;;;;;;5088552;28;20444;-78
2022/04/08 05:23:00;;;;;;;5.68;0.80;;;3.70;99.90;;;;;;5088428;28;20406;-78
2022/04/08 05:25:26;;;;;;;6.47;1.23;;;3.60;99.90;;;;;;5088856;28;20402;-77
2022/04/08 05:27:53;;;;;;;5.10;1.07;;;3.60;99.90;;;;;;5088216;28;20490;-77
2022/04/08 05:30:19;;;;;;;7.82;1.60;;;3.60;99.90;;;;;;5088085;28;20406;-78
2022/04/08 05:32:48;;;;;;;8.48;1.70;;;3.60;99.90;;;;;;5089845;28;20810;-78
2022/04/08 05:35:15;;;;;;;7.22;1.40;;;3.60;99.90;;;;;;5089788;28;20437;-77
2022/04/08 05:37:42;;;;;;;7.60;1.65;;;3.70;99.90;;;;;;5089456;28;20438;-78
2022/04/08 05:40:28;;;;;;;9.98;1.75;;;3.80;99.90;;;;;;5088265;28;20429;-78
2022/04/08 05:42:54;;;;;;;10.20;1.90;;;3.80;99.90;;;;;;5089371;28;20483;-78
2022/04/08 05:45:21;;;;;;;8.10;1.70;;;3.80;99.90;;;;;;5089697;28;20858;-77
2022/04/08 05:47:47;;;;;;;12.23;2.38;;;3.90;99.90;;;;;;5088079;28;20455;-78
2022/04/08 05:50:14;;;;;;;9.60;1.90;;;3.90;99.90;;;;;;5089119;28;20448;-78
2022/04/08 05:52:40;;;;;;;8.77;1.73;;;3.90;99.90;;;;;;5081787;28;20425;-77
2022/04/08 05:55:07;;;;;;;8.70;1.93;;;3.90;99.90;;;;;;5082699;28;20426;-78
2022/04/08 05:57:42;;;;;;;8.30;2.00;;;3.90;99.90;;;;;;5087267;28;20908;-78
2022/04/08 06:00:13;;;;;;;7.47;1.95;;;3.90;99.90;;;;;;5087880;28;20453;-78
2022/04/08 06:02:43;;;;;;;8.15;1.75;;;3.90;99.90;;;;;;5087734;28;21006;-78
2022/04/08 06:05:09;;;;;;;7.35;1.63;;;3.90;99.90;;;;;;5089032;28;20402;-78
2022/04/08 06:07:35;;;;;;;6.68;1.52;;;3.90;99.90;;;;;;5087208;28;21321;-78
2022/04/08 06:10:02;;;;;;;6.18;1.27;;;3.90;99.90;;;;;;5087827;28;20497;-78
2022/04/08 06:12:28;;;;;;;7.38;1.90;;;3.90;99.90;;;;;;5087589;28;20497;-78
2022/04/08 06:14:54;;;;;;;5.20;1.40;;;3.90;99.90;;;;;;5087508;28;20845;-78
2022/04/08 06:17:20;;;;;;;6.72;1.50;;;4.00;99.90;;;;;;5087548;28;20784;-78
2022/04/08 06:19:47;;;;;;;6.45;1.50;;;4.00;99.90;;;;;;5088234;28;20478;-78
2022/04/08 06:22:13;;;;;;;5.40;1.30;;;3.90;99.90;;;;;;5087638;28;20414;-76
2022/04/08 06:24:39;;;;;;;6.75;1.40;;;4.00;99.90;;;;;;5087089;28;20402;-77
2022/04/08 06:27:05;;;;;;;6.03;1.65;;;4.20;99.90;;;;;;5088606;28;20475;-77
2022/04/08 06:29:31;;;;;;;5.13;1.35;;;4.30;99.90;;;;;;5088606;28;20888;-77
2022/04/08 06:31:56;;;;;;;6.75;1.60;;;4.50;99.90;;;;;;5088524;28;20447;-77
2022/04/08 06:34:22;;;;;;;6.47;1.23;;;4.50;99.90;;;;;;5087270;28;20520;-77
2022/04/08 06:36:48;;;;;;;6.47;1.20;;;4.60;99.90;;;;;;5086674;28;20406;-78
2022/04/08 06:39:13;;;;;;;5.63;1.27;;;4.70;99.90;;;;;;5087000;28;20406;-77
2022/04/08 06:41:39;;;;;;;6.90;1.10;;;4.70;99.90;;;;;;5087532;28;20473;-78
2022/04/08 06:44:05;;;;;;;3.58;1.05;;;4.60;99.90;;;;;;5087068;28;20402;-78
2022/04/08 06:46:30;;;;;;;4.15;1.05;;;4.60;99.90;;;;;;5086565;28;20862;-77
2022/04/08 06:48:58;;;;;;;6.63;1.03;;;4.60;99.90;;;;;;5070127;28;20844;-76
2022/04/08 06:51:24;;;;;;;6.28;1.25;;;4.60;99.90;;;;;;5088233;28;20414;-77
2022/04/08 06:53:49;;;;;;;5.63;1.15;;;4.70;99.90;;;;;;5086574;28;20860;-77
2022/04/08 06:56:15;;;;;;;6.57;1.23;;;4.70;99.90;;;;;;5087336;28;20410;-78
2022/04/08 06:58:40;;;;;;;6.93;1.50;;;4.70;99.90;;;;;;5088059;28;20888;-78
2022/04/08 07:01:07;;;;;;;5.17;1.33;;;4.80;99.90;;;;;;5088003;28;20426;-78
2022/04/08 07:03:33;;;;;;;6.13;1.10;;;4.90;99.90;;;;;;5088193;28;20400;-78
2022/04/08 07:05:59;;;;;;;7.10;1.10;;;5.00;99.90;;;;;;5087738;28;20405;-78
2022/04/08 07:08:24;;;;;;;3.70;1.20;;;5.20;99.90;;;;;;5088067;28;20885;-77
2022/04/08 07:10:50;;;;;;;8.17;1.43;;;5.30;99.90;;;;;;5087446;28;20401;-78
2022/04/08 07:13:15;;;;;;;9.57;1.88;;;5.30;99.90;;;;;;5086808;28;20406;-78
2022/04/08 07:15:41;;;;;;;9.07;2.03;;;5.30;99.90;;;;;;5086485;28;20904;-77
2022/04/08 07:18:07;;;;;;;8.02;2.30;;;5.40;99.90;;;;;;5086877;28;20430;-77
2022/04/08 07:20:33;;;;;;;7.80;1.50;;;5.50;99.90;;;;;;5087577;28;20426;-76
2022/04/08 07:23:01;;;;;;;7.30;1.60;;;5.40;99.90;;;;;;5086628;28;20512;-76
2022/04/08 07:25:28;;;;;;;11.30;2.05;;;5.30;99.90;;;;;;5087834;28;20918;-78
2022/04/08 07:27:58;;;;;;;6.22;2.08;;;5.20;99.90;;;;;;5085896;28;20406;-78
2022/04/08 07:30:25;;;;;;;8.77;2.00;;;5.20;99.90;;;;;;5087550;28;20397;-78
2022/04/08 07:32:52;;;;;;;9.32;2.10;;;5.20;99.90;;;;;;5086362;28;20413;-76
2022/04/08 07:35:23;;;;;;;8.77;2.37;;;5.10;99.90;;;;;;5085723;28;20413;-76
2022/04/08 07:37:49;;;;;;;8.80;2.50;;;5.10;99.90;;;;;;5087391;28;20505;-76
2022/04/08 07:40:15;;;;;;;10.18;2.63;;;5.10;99.90;;;;;;5087253;28;20425;-76
2022/04/08 07:42:41;;;;;;;9.70;2.60;;;5.20;99.90;;;;;;5087702;28;20406;-78
2022/04/08 07:45:08;;;;;;;13.07;2.80;;;5.30;99.90;;;;;;5086531;28;20570;-78
2022/04/08 07:47:34;;;;;;;10.93;2.20;;;5.40;99.90;;;;;;5087258;28;20451;-78
2022/04/08 07:50:03;;;;;;;11.95;3.05;;;5.60;99.90;;;;;;5085385;28;20413;-78
2022/04/08 07:52:28;;;;;;;6.75;1.77;;;5.70;99.90;;;;;;5087473;28;20409;-78
2022/04/08 07:54:55;;;;;;;9.73;2.10;;;5.80;99.90;;;;;;5090034;28;20409;-78
2022/04/08 07:57:21;;;;;;;7.70;1.50;;;5.90;99.90;;;;;;5089859;28;20489;-76
2022/04/08 07:59:47;;;;;;;7.47;1.33;;;6.00;99.90;;;;;;5090150;28;20438;-76
2022/04/08 08:02:13;;;;;;;10.07;1.90;;;6.10;99.90;;;;;;5090944;28;20414;-76
2022/04/08 08:04:39;;;;;;;13.17;1.97;;;6.00;99.90;;;;;;5089970;28;20412;-76
2022/04/08 08:07:06;;;;;;;10.67;2.00;;;6.00;99.90;;;;;;5091109;28;20417;-78
2022/04/08 08:09:33;;;;;;;6.65;1.38;;;5.90;99.90;;;;;;5090189;28;20456;-77
2022/04/08 08:11:59;;;;;;;6.65;1.50;;;5.90;99.90;;;;;;5091178;28;20896;-78
2022/04/08 08:14:25;;;;;;;6.82;1.40;;;5.80;99.90;;;;;;5090987;28;20402;-78
2022/04/08 08:16:50;;;;;;;7.85;1.50;;;5.70;99.90;;;;;;5090740;28;20955;-78
2022/04/08 08:19:16;;;;;;;4.43;1.33;;;5.60;99.90;;;;;;5091129;28;20516;-77
2022/04/08 08:21:41;;;;;;;8.90;1.77;;;5.60;99.90;;;;;;5090838;28;20469;-77
2022/04/08 08:24:08;;;;;;;7.30;1.63;;;5.60;99.90;;;;;;5090764;28;20409;-78
2022/04/08 08:26:33;;;;;;;6.32;1.40;;;5.60;99.90;;;;;;5091087;28;20390;-77
2022/04/08 08:28:59;;;;;;;6.17;1.30;;;5.70;99.90;;;;;;5090820;28;20925;-77
2022/04/08 08:31:25;;;;;;;6.80;1.23;;;5.90;99.90;;;;;;5090582;28;20397;-77
2022/04/08 08:33:50;;;;;;;7.05;1.60;;;6.00;99.90;;;;;;5089747;28;20816;-78
2022/04/08 08:36:16;;;;;;;6.35;1.40;;;6.20;99.90;;;;;;5090974;28;20900;-78
2022/04/08 08:38:42;;;;;;;8.67;1.50;;;6.30;99.90;;;;;;5089384;28;20549;-78
2022/04/08 08:41:09;;;;;;;6.30;1.40;;;6.50;99.90;;;;;;5090413;28;20430;-78
2022/04/08 08:43:36;;;;;;;8.48;1.40;;;6.60;99.90;;;;;;5090946;28;20405;-78
2022/04/08 08:46:03;;;;;;;7.63;1.13;;;6.70;99.90;;;;;;5088838;28;20832;-76
2022/04/08 08:48:34;;;;;;;6.97;1.10;;;6.80;99.90;;;;;;5089088;28;20437;-76
2022/04/08 08:51:06;;;;;;;7.87;1.67;;;6.80;99.90;;;;;;5089113;28;20414;-77
2022/04/08 08:53:33;;;;;;;9.90;1.90;;;7.00;99.90;;;;;;5089612;28;20769;-78
2022/04/08 08:56:00;;;;;;;8.32;1.50;;;7.20;99.90;;;;;;5089026;28;20945;-77
2022/04/08 08:58:27;;;;;;;12.40;1.53;;;7.40;99.90;;;;;;5089244;28;20417;-78
2022/04/08 09:00:53;;;;;;;9.20;1.20;;;7.50;99.90;;;;;;5090136;28;20856;-77
2022/04/08 09:03:18;;;;;;;5.83;0.90;;;7.60;99.90;;;;;;5071662;28;20493;-78
2022/04/08 09:05:47;;;;;;;12.15;1.77;;;7.40;99.90;;;;;;5089514;28;20406;-78
2022/04/08 09:08:13;;;;;;;7.50;1.50;;;6.90;99.90;;;;;;5089633;28;20481;-78
2022/04/08 09:10:46;;;;;;;7.25;1.23;;;6.30;99.90;;;;;;5088824;28;20496;-78
2022/04/08 09:13:16;;;;;;;6.65;1.10;;;5.90;99.90;;;;;;5072094;28;20414;-78
2022/04/08 09:15:52;;;;;;;8.48;1.67;;;5.80;99.90;;;;;;5090218;28;20402;-77
2022/04/08 09:18:18;;;;;;;7.65;1.40;;;5.80;99.90;;;;;;5089022;28;20863;-77
2022/04/08 09:20:49;;;;;;;9.90;1.60;;;6.00;99.90;;;;;;5089582;28;20450;-78
2022/04/08 09:23:18;;;;;;;8.60;1.20;;;6.40;99.90;;;;;;5089486;28;20901;-78
2022/04/08 09:25:47;;;;;;;7.20;1.13;;;7.30;99.90;;;;;;5071548;28;20409;-77
2022/04/08 09:28:18;;;;;;;7.88;1.40;;;8.10;99.90;;;;;;5088089;28;20441;-78
2022/04/08 09:30:55;;;;;;;7.32;1.25;;;8.10;99.90;;;;;;5087983;28;20390;-77
2022/04/08 09:33:23;;;;;;;4.65;0.90;;;8.00;99.90;;;;;;5088181;28;20459;-75
2022/04/08 09:35:49;;;;;;;2.72;0.43;;;7.70;99.90;;;;;;5089486;28;20390;-76
2022/04/08 09:38:19;;;;;;;2.83;0.70;;;7.40;99.90;;;;;;5088275;28;20445;-76
2022/04/08 09:40:47;;;;;;;3.60;0.63;;;7.00;99.90;;;;;;5089359;28;20425;-77
2022/04/08 09:43:13;;;;;;;1.75;0.35;;;6.70;99.90;;;;;;5089158;28;20489;-78
2022/04/08 09:45:39;;;;;;;3.58;0.60;;;6.80;99.90;;;;;;5089747;28;20441;-78
2022/04/08 09:48:08;;;;;;;5.53;0.60;;;7.60;99.90;;;;;;5089435;28;20459;-77
2022/04/08 09:50:36;;;;;;;4.63;0.80;;;8.40;99.90;;;;;;5087802;28;20492;-77
2022/04/08 09:53:03;;;;;;;3.72;0.52;;;9.10;99.90;;;;;;5089292;28;20422;-77
2022/04/08 09:55:30;;;;;;;3.00;0.50;;;9.60;99.90;;;;;;5071271;28;20494;-77
2022/04/08 09:57:57;;;;;;;4.85;0.70;;;10.00;99.90;;;;;;5088308;28;20402;-77
2022/04/08 10:00:24;;;;;;;4.45;0.88;;;10.60;99.90;;;;;;5089104;28;21170;-78
2022/04/08 10:02:52;;;;;;;4.07;0.70;;;11.00;99.90;;;;;;5088106;28;20403;-78
2022/04/08 10:05:18;;;;;;;4.13;0.82;;;10.90;99.90;;;;;;5088952;28;20489;-78
2022/04/08 10:07:46;;;;;;;3.77;0.60;;;10.50;99.90;;;;;;5088621;28;20485;-78
2022/04/08 10:10:21;;;;;;;3.67;0.65;;;10.00;99.90;;;;;;5070717;28;20417;-77
2022/04/08 10:13:23;;;;;;;5.55;0.90;;;9.50;99.90;;;;;;5088474;28;20402;-77
2022/04/08 10:16:13;;;;;;;5.55;0.90;;;9.10;99.90;;;;;;5089380;28;20511;-77
2022/04/08 10:18:42;;;;;;;7.13;0.80;;;8.70;99.90;;;;;;5088773;28;20402;-78
2022/04/08 10:21:10;;;;;;;5.13;0.80;;;8.50;99.90;;;;;;5088377;28;20523;-77
2022/04/08 10:23:58;;;;;;;6.90;0.50;;;8.90;99.90;;;;;;5070416;28;20410;-77
2022/04/08 10:26:25;;;;;;;3.83;0.63;;;9.80;99.90;;;;;;5088660;28;20478;-77
2022/04/08 10:28:52;;;;;;;5.90;1.10;;;10.60;99.90;;;;;;5088434;28;20402;-77
2022/04/08 10:31:19;;;;;;;4.72;0.60;;;10.90;99.90;;;;;;5069970;28;20437;-77
2022/04/08 10:33:46;;;;;;;6.68;0.93;;;10.70;99.90;;;;;;5087217;28;20406;-77
2022/04/08 10:36:13;;;;;;;2.97;0.60;;;10.60;99.90;;;;;;5088441;28;20776;-77
2022/04/08 10:38:38;;;;;;;6.90;0.90;;;10.30;99.90;;;;;;5088624;28;20402;-77
2022/04/08 10:41:10;;;;;;;6.05;0.85;;;9.90;99.90;;;;;;5086968;28;20430;-76
2022/04/08 10:43:48;;;;;;;5.70;0.82;;;9.60;99.90;;;;;;5087803;28;20406;-76
2022/04/08 10:46:27;;;;;;;6.32;0.77;;;9.20;99.90;;;;;;5088305;28;20451;-77
2022/04/08 10:48:59;;;;;;;5.93;1.10;;;9.50;99.90;;;;;;5087811;28;21015;-77
2022/04/08 10:51:32;;;;;;;5.85;0.90;;;10.30;99.90;;;;;;5086993;28;20799;-77
2022/04/08 10:54:04;;;;;;;6.68;0.80;;;11.00;99.90;;;;;;5086725;28;20738;-77
2022/04/08 10:56:36;;;;;;;5.35;0.90;;;11.40;99.90;;;;;;5088001;28;20484;-77
2022/04/08 10:59:03;;;;;;;6.55;0.80;;;11.30;99.90;;;;;;5087980;28;20428;-77
2022/04/08 11:01:28;;;;;;;4.72;0.70;;;10.90;99.90;;;;;;5088145;28;20515;-77
2022/04/08 11:03:59;;;;;;;8.00;0.85;;;10.60;99.90;;;;;;5087835;28;20398;-77
2022/04/08 11:06:29;;;;;;;7.05;0.80;;;10.30;99.90;;;;;;5088012;28;20406;-77
2022/04/08 11:08:55;;;;;;;6.77;1.00;;;10.10;99.90;;;;;;5087621;28;20398;-76
2022/04/08 11:11:30;;;;;;;8.68;1.20;;;9.90;99.90;;;;;;5087993;28;20401;-76
2022/04/08 11:14:00;;;;;;;6.93;0.90;;;9.80;99.90;;;;;;5087620;28;20439;-77
2022/04/08 11:16:29;;;;;;;6.80;1.08;;;9.60;99.90;;;;;;5086397;28;20407;-77
2022/04/08 11:18:55;;;;;;;7.78;1.10;;;9.30;99.90;;;;;;5087529;28;20459;-76
2022/04/08 11:21:21;;;;;;;5.35;0.80;;;9.10;99.90;;;;;;5087682;28;21382;-76
2022/04/08 11:23:59;;;;;;;4.43;0.80;;;9.30;99.90;;;;;;5087666;28;20398;-76
2022/04/08 11:26:25;;;;;;;6.37;1.03;;;9.60;99.90;;;;;;5087237;28;20405;-76
2022/04/08 11:28:51;;;;;;;5.40;1.08;;;10.00;99.90;;;;;;5087169;28;20426;-77
2022/04/08 11:31:18;;;;;;;5.05;1.00;;;10.30;99.90;;;;;;5087780;28;20448;-76
2022/04/08 11:33:44;;;;;;;5.78;1.00;;;10.20;99.90;;;;;;5086511;28;20768;-77
2022/04/08 11:36:10;;;;;;;6.88;1.15;;;10.20;99.90;;;;;;5086307;28;20406;-77
2022/04/08 11:38:35;;;;;;;5.93;0.87;;;10.20;99.90;;;;;;5069411;28;20414;-77
2022/04/08 11:41:02;;;;;;;4.70;0.77;;;10.10;99.90;;;;;;5087040;28;20514;-77
2022/04/08 11:43:28;;;;;;;4.47;0.60;;;10.00;99.90;;;;;;5087474;28;20443;-77
2022/04/08 11:45:54;;;;;;;4.70;0.60;;;9.90;99.90;;;;;;5087405;28;20398;-76
2022/04/08 11:48:23;;;;;;;6.90;0.85;;;9.80;99.90;;;;;;5088053;28;20398;-76
2022/04/08 11:50:50;;;;;;;5.45;0.70;;;9.80;99.90;;;;;;5087449;28;20398;-77
2022/04/08 11:53:15;;;;;;;5.97;0.70;;;9.80;99.90;;;;;;5087148;28;20523;-76
2022/04/08 11:55:52;;;;;;;4.90;0.93;;;9.80;99.90;;;;;;5086042;28;20489;-77
2022/04/08 11:58:20;;;;;;;5.07;0.68;;;9.80;99.90;;;;;;5086151;28;20414;-77
2022/04/08 12:00:48;;;;;;;4.20;0.73;;;10.00;99.90;;;;;;5069465;28;20456;-77
2022/04/08 12:03:22;;;;;;;5.63;0.90;;;10.50;99.90;;;;;;5087717;28;20406;-77
2022/04/08 12:05:49;;;;;;;5.47;0.85;;;11.20;99.90;;;;;;5087419;28;20394;-77
2022/04/08 12:08:16;;;;;;;4.05;0.70;;;11.60;99.90;;;;;;5087409;28;20401;-77
2022/04/08 12:10:43;;;;;;;4.68;0.68;;;11.90;99.90;;;;;;5086355;28;20688;-77
2022/04/08 12:13:29;;;;;;;4.72;0.82;;;12.20;98.60;;;;;;5086363;28;20496;-77
2022/04/08 12:15:57;;;;;;;4.35;0.63;;;12.30;99.20;;;;;;5086681;28;20425;-78
2022/04/08 12:18:28;;;;;;;5.28;0.95;;;11.80;97.20;;;;;;5087027;28;20406;-77
2022/04/08 12:20:59;;;;;;;5.38;0.70;;;11.40;99.10;;;;;;5087250;28;20426;-76
2022/04/08 12:23:26;;;;;;;6.15;0.80;;;11.20;98.70;;;;;;5087190;28;20492;-77
2022/04/08 12:25:53;;;;;;;8.23;1.23;;;11.60;99.40;;;;;;5087102;28;20405;-76
2022/04/08 12:28:23;;;;;;;7.05;0.90;;;12.00;99.90;;;;;;5087279;28;20390;-76
2022/04/08 12:30:48;;;;;;;5.63;0.60;;;12.30;99.40;;;;;;5086960;28;20398;-77
2022/04/08 12:33:14;;;;;;;4.82;0.70;;;12.00;96.10;;;;;;5086957;28;21001;-76
2022/04/08 12:35:40;;;;;;;4.47;0.57;;;11.70;95.60;;;;;;5086768;28;20417;-76
2022/04/08 12:38:06;;;;;;;5.77;0.87;;;11.40;96.80;;;;;;5086406;28;20405;-77
2022/04/08 12:40:32;;;;;;;6.25;1.00;;;11.50;95.10;;;;;;5089577;28;20434;-76
2022/04/08 12:43:00;;;;;;;8.13;1.33;;;11.70;96.80;;;;;;5090774;28;20409;-76
2022/04/08 12:45:26;;;;;;;6.63;1.05;;;12.20;99.20;;;;;;5090485;28;20473;-77
2022/04/08 12:47:52;;;;;;;6.30;0.95;;;12.70;98.60;;;;;;5089901;28;20451;-76
2022/04/08 12:50:18;;;;;;;4.30;0.77;;;13.30;97.60;;;;;;5090546;28;20807;-76
2022/04/08 12:52:44;;;;;;;5.20;0.67;;;13.60;96.20;;;;;;5088912;28;20394;-76